Time;durP1;ratioP1;P1;durP2;ratioP2;P2;SDS_P1;SDS_P2;PMS_P1;PMS_P2;Temp;Humidity;BMP_temperature;BMP_pressure;BME280_temperature;BME280_humidity;BME280_pressure;Samples;Min_cycle;Max_cycle;Signal;HPM_P1;HPM_P2
2022/03/23 00:01:53;;;;;;;;;;;6.80;99.90;;;;;;5014495;28;19963;-77
2022/03/23 00:04:19;;;;;;;;;;;6.80;99.90;;;;;;5017309;28;19963;-77
2022/03/23 00:06:44;;;;;;;;;;;6.70;99.90;;;;;;5007757;28;20003;-77
2022/03/23 00:09:10;;;;;;;;;;;6.70;99.90;;;;;;5001987;28;19987;-77
2022/03/23 00:11:36;;;;;;;;;;;6.70;99.90;;;;;;5014249;28;19936;-77
2022/03/23 00:14:01;;;;;;;;;;;6.70;99.90;;;;;;5018591;28;19971;-77
2022/03/23 00:16:27;;;;;;;;;;;6.60;99.90;;;;;;5022604;28;19927;-78
2022/03/23 00:18:53;;;;;;;;;;;6.60;99.90;;;;;;5024151;28;20016;-77
2022/03/23 00:21:18;;;;;;;;;;;6.60;99.90;;;;;;5007782;28;20019;-77
2022/03/23 00:23:43;;;;;;;;;;;6.60;99.90;;;;;;5019986;28;20402;-78
2022/03/23 00:26:09;;;;;;;;;;;6.60;99.90;;;;;;5020815;28;19925;-77
2022/03/23 00:28:34;;;;;;;;;;;6.60;99.90;;;;;;5018706;28;20351;-77
2022/03/23 00:31:00;;;;;;;;;;;6.60;99.90;;;;;;5017729;28;19929;-77
2022/03/23 00:33:25;;;;;;;;;;;6.60;99.90;;;;;;5019086;28;19948;-78
2022/03/23 00:35:51;;;;;;;;;;;6.60;99.90;;;;;;5003395;28;19937;-79
2022/03/23 00:38:17;;;;;;;;;;;6.60;99.90;;;;;;5017451;28;19929;-77
2022/03/23 00:40:44;;;;;;;;;;;6.60;99.90;;;;;;5016915;28;19925;-77
2022/03/23 00:43:10;;;;;;;;;;;6.50;99.90;;;;;;5002978;28;19921;-77
2022/03/23 00:45:36;;;;;;;;;;;6.50;99.90;;;;;;5005073;28;19921;-80
2022/03/23 00:48:02;;;;;;;;;;;6.50;99.90;;;;;;5021305;28;19926;-77
2022/03/23 00:50:27;;;;;;;;;;;6.50;99.90;;;;;;5039523;28;19933;-77
2022/03/23 00:52:53;;;;;;;;;;;6.40;99.90;;;;;;5017972;28;20314;-77
2022/03/23 00:55:18;;;;;;;;;;;6.40;99.90;;;;;;5021064;28;20295;-77
2022/03/23 00:57:44;;;;;;;;;;;6.40;99.90;;;;;;5020805;28;19922;-77
2022/03/23 01:00:12;;;;;;;;;;;6.30;99.90;;;;;;5019458;28;19933;-78
2022/03/23 01:02:41;;;;;;;;;;;6.30;99.90;;;;;;5015679;28;19921;-77
2022/03/23 01:05:11;;;;;;;;;;;6.20;99.90;;;;;;5021234;28;20012;-77
2022/03/23 01:07:37;;;;;;;;;;;6.10;99.90;;;;;;5015579;28;19961;-78
2022/03/23 01:10:03;;;;;;;;;;;6.10;99.90;;;;;;5022278;28;20018;-77
2022/03/23 01:12:29;;;;;;;;;;;6.00;99.90;;;;;;5022093;28;20023;-77
2022/03/23 01:14:55;;;;;;;;;;;5.90;99.90;;;;;;5024447;28;19976;-77
2022/03/23 01:17:20;;;;;;;;;;;5.80;99.90;;;;;;5002347;28;21581;-78
2022/03/23 01:19:46;;;;;;;;;;;5.70;99.90;;;;;;5006587;28;19921;-78
2022/03/23 01:22:12;;;;;;;;;;;5.70;99.90;;;;;;5013339;28;20451;-78
2022/03/23 01:24:37;;;;;;;;;;;5.70;99.90;;;;;;5020247;28;20012;-77
2022/03/23 01:27:03;;;;;;;;;;;5.70;99.90;;;;;;5007118;28;19924;-77
2022/03/23 01:29:29;;;;;;;;;;;5.60;99.90;;;;;;5020842;28;20414;-80
2022/03/23 01:31:54;;;;;;;;;;;5.60;99.90;;;;;;5022778;28;20390;-78
2022/03/23 01:34:20;;;;;;;;;;;5.60;99.90;;;;;;5022722;28;19921;-76
2022/03/23 01:36:46;;;;;;;;;;;5.50;99.90;;;;;;5012581;28;19925;-76
2022/03/23 01:39:11;;;;;;;;;;;5.50;99.90;;;;;;5022386;28;19921;-77
2022/03/23 01:41:38;;;;;;;;;;;5.40;99.90;;;;;;5025356;28;20376;-77
2022/03/23 01:44:11;;;;;;;;;;;5.40;99.90;;;;;;5011840;28;19936;-77
2022/03/23 01:46:36;;;;;;;;;;;5.40;99.90;;;;;;5025360;28;19930;-77
2022/03/23 01:49:02;;;;;;;;;;;5.40;99.90;;;;;;5022134;28;20542;-79
2022/03/23 01:51:27;;;;;;;;;;;5.30;99.90;;;;;;5024728;28;19925;-77
2022/03/23 01:53:53;;;;;;;;;;;5.30;99.90;;;;;;5023631;28;19925;-77
2022/03/23 01:56:18;;;;;;;;;;;5.30;99.90;;;;;;5008630;28;19921;-77
2022/03/23 01:58:44;;;;;;;;;;;5.20;99.90;;;;;;5020320;28;20016;-77
2022/03/23 02:01:10;;;;;;;;;;;5.20;99.90;;;;;;5018258;28;20503;-77
2022/03/23 02:03:35;;;;;;;;;;;5.10;99.90;;;;;;5011758;28;19920;-78
2022/03/23 02:06:01;;;;;;;;;;;5.00;99.90;;;;;;5022174;28;19922;-77
2022/03/23 02:08:26;;;;;;;;;;;5.00;99.90;;;;;;5004554;28;19925;-77
2022/03/23 02:10:52;;;;;;;;;;;5.00;99.90;;;;;;5013270;28;20020;-79
2022/03/23 02:13:17;;;;;;;;;;;4.90;99.90;;;;;;5023132;28;19959;-77
2022/03/23 02:15:43;;;;;;;;;;;4.90;99.90;;;;;;5005598;28;19929;-77
2022/03/23 02:18:08;;;;;;;;;;;4.90;99.90;;;;;;5024757;28;19928;-77
2022/03/23 02:20:34;;;;;;;;;;;4.90;99.90;;;;;;5023584;28;19964;-77
2022/03/23 02:22:59;;;;;;;;;;;4.80;99.90;;;;;;5009704;28;20007;-77
2022/03/23 02:25:26;;;;;;;;;;;4.80;99.90;;;;;;5024885;28;19936;-78
2022/03/23 02:27:53;;;;;;;;;;;4.80;99.90;;;;;;5001558;28;19921;-77
2022/03/23 02:30:18;;;;;;;;;;;4.80;99.90;;;;;;5008837;28;19939;-77
2022/03/23 02:32:44;;;;;;;;;;;4.80;99.90;;;;;;5005332;28;19921;-77
2022/03/23 02:35:11;;;;;;;;;;;4.80;99.90;;;;;;5023459;28;20306;-77
2022/03/23 02:37:40;;;;;;;;;;;4.80;99.90;;;;;;5022166;28;20446;-78
2022/03/23 02:40:08;;;;;;;;;;;4.80;99.90;;;;;;5007967;28;19921;-78
2022/03/23 02:42:34;;;;;;;;;;;4.80;99.90;;;;;;5006402;28;19921;-77
2022/03/23 02:44:59;;;;;;;;;;;4.80;99.90;;;;;;5004523;28;19929;-79
2022/03/23 02:47:25;;;;;;;;;;;4.70;99.90;;;;;;5021887;28;19921;-78
2022/03/23 02:49:50;;;;;;;;;;;4.70;99.90;;;;;;5020016;28;19921;-77
2022/03/23 02:52:16;;;;;;;;;;;4.70;99.90;;;;;;5016382;28;19925;-78
2022/03/23 03:01:52;;;;;;;;;;;4.70;99.90;;;;;;5014006;28;19921;-77
2022/03/23 03:03:26;;;;;;;;;;;4.70;99.90;;;;;;5016895;28;20403;-78
2022/03/23 03:05:51;;;;;;;;;;;4.70;99.90;;;;;;5019927;28;19956;-77
2022/03/23 03:11:01;;;;;;;;;;;4.70;99.90;;;;;;5018312;28;19979;-78
2022/03/23 03:13:29;;;;;;;;;;;4.70;99.90;;;;;;5025347;28;19925;-78
2022/03/23 03:15:59;;;;;;;;;;;4.70;99.90;;;;;;5021084;28;20007;-78
2022/03/23 03:18:24;;;;;;;;;;;4.70;99.90;;;;;;5010145;28;19967;-78
2022/03/23 03:20:49;;;;;;;;;;;4.70;99.90;;;;;;5019701;28;20341;-78
2022/03/23 03:23:15;;;;;;;;;;;4.70;99.90;;;;;;5024534;28;19947;-78
2022/03/23 03:25:41;;;;;;;;;;;4.70;99.90;;;;;;5000914;28;19922;-79
2022/03/23 03:28:06;;;;;;;;;;;4.70;99.90;;;;;;5022230;28;20088;-78
2022/03/23 03:30:32;;;;;;;;;;;4.70;99.90;;;;;;5014412;28;20451;-79
2022/03/23 03:32:57;;;;;;;;;;;4.60;99.90;;;;;;5021068;28;20000;-79
2022/03/23 03:35:23;;;;;;;;;;;4.60;99.90;;;;;;5012933;28;19931;-78
2022/03/23 03:37:48;;;;;;;;;;;4.60;99.90;;;;;;5019750;28;19944;-78
2022/03/23 03:40:14;;;;;;;;;;;4.60;99.90;;;;;;5008569;28;20438;-78
2022/03/23 03:42:39;;;;;;;;;;;4.60;99.90;;;;;;5005131;28;20377;-79
2022/03/23 03:45:05;;;;;;;;;;;4.50;99.90;;;;;;5022614;28;19921;-78
2022/03/23 03:47:31;;;;;;;;;;;4.50;99.90;;;;;;5003991;28;19964;-77
2022/03/23 03:49:56;;;;;;;;;;;4.40;99.90;;;;;;5023258;28;19921;-78
2022/03/23 03:52:22;;;;;;;;;;;4.40;99.90;;;;;;5019672;28;19940;-78
2022/03/23 03:54:48;;;;;;;;;;;4.40;99.90;;;;;;5019500;28;19963;-78
2022/03/23 03:57:13;;;;;;;;;;;4.30;99.90;;;;;;5017174;28;19964;-78
2022/03/23 03:59:39;;;;;;;;;;;4.40;99.90;;;;;;5018893;28;19970;-78
2022/03/23 04:02:05;;;;;;;;;;;4.40;99.90;;;;;;5020624;28;19925;-78
2022/03/23 04:04:31;;;;;;;;;;;4.30;99.90;;;;;;5018552;28;19929;-80
2022/03/23 04:06:56;;;;;;;;;;;4.40;99.90;;;;;;4999212;28;19924;-78
2022/03/23 04:09:22;;;;;;;;;;;4.30;99.90;;;;;;5003760;28;19983;-77
2022/03/23 04:11:47;;;;;;;;;;;4.30;99.90;;;;;;5020162;28;19925;-77
2022/03/23 04:14:13;;;;;;;;;;;4.30;99.90;;;;;;5019833;28;20417;-78
2022/03/23 04:16:39;;;;;;;;;;;4.30;99.90;;;;;;5019106;28;19930;-77
2022/03/23 04:19:05;;;;;;;;;;;4.30;99.90;;;;;;5007121;28;20007;-76
2022/03/23 04:21:31;;;;;;;;;;;4.30;99.90;;;;;;5020104;28;20023;-76
2022/03/23 04:23:57;;;;;;;;;;;4.20;99.90;;;;;;5019730;28;19968;-76
2022/03/23 04:26:22;;;;;;;;;;;4.20;99.90;;;;;;5016174;28;19924;-77
2022/03/23 04:28:48;;;;;;;;;;;4.20;99.90;;;;;;5017598;28;19925;-77
2022/03/23 04:31:13;;;;;;;;;;;4.20;99.90;;;;;;5016101;28;20400;-77
2022/03/23 04:33:39;;;;;;;;;;;4.20;99.90;;;;;;5017967;28;20012;-77
2022/03/23 04:36:06;;;;;;;;;;;4.10;99.90;;;;;;5014913;28;20011;-76
2022/03/23 04:38:31;;;;;;;;;;;4.10;99.90;;;;;;5012470;28;19921;-76
2022/03/23 04:40:57;;;;;;;;;;;4.00;99.90;;;;;;5019857;28;19925;-77
2022/03/23 04:43:23;;;;;;;;;;;4.00;99.90;;;;;;5007852;28;19925;-76
2022/03/23 04:45:48;;;;;;;;;;;3.90;99.90;;;;;;5003462;28;20437;-76
2022/03/23 04:48:14;;;;;;;;;;;4.00;99.90;;;;;;5020980;28;19971;-76
2022/03/23 04:50:40;;;;;;;;;;;3.90;99.90;;;;;;5021383;28;20306;-76
2022/03/23 04:53:06;;;;;;;;;;;3.80;99.90;;;;;;5018189;28;19932;-76
2022/03/23 04:55:31;;;;;;;;;;;3.80;99.90;;;;;;5017985;28;19921;-76
2022/03/23 04:58:00;;;;;;;;;;;3.70;99.90;;;;;;5019317;28;20272;-76
2022/03/23 05:00:26;;;;;;;;;;;3.70;99.90;;;;;;5018202;28;19928;-77
2022/03/23 05:02:52;;;;;;;;;;;3.70;99.90;;;;;;5022894;28;19925;-77
2022/03/23 05:05:17;;;;;;;;;;;3.60;99.90;;;;;;5021100;28;20371;-77
2022/03/23 05:07:43;;;;;;;;;;;3.70;99.90;;;;;;5020235;28;20151;-77
2022/03/23 05:10:09;;;;;;;;;;;3.70;99.90;;;;;;5019746;28;19948;-76
2022/03/23 05:12:36;;;;;;;;;;;3.70;99.90;;;;;;5022747;28;20693;-78
2022/03/23 05:15:04;;;;;;;;;;;3.70;99.90;;;;;;5024973;28;19963;-77
2022/03/23 05:17:30;;;;;;;;;;;3.60;99.90;;;;;;5021165;28;19928;-77
2022/03/23 05:19:55;;;;;;;;;;;3.60;99.90;;;;;;5025817;28;20421;-77
2022/03/23 05:22:21;;;;;;;;;;;3.50;99.90;;;;;;5024286;28;20382;-77
2022/03/23 05:24:47;;;;;;;;;;;3.50;99.90;;;;;;5019564;28;19921;-77
2022/03/23 05:27:12;;;;;;;;;;;3.50;99.90;;;;;;5023122;28;19968;-76
2022/03/23 05:29:38;;;;;;;;;;;3.50;99.90;;;;;;5021290;28;19922;-79
2022/03/23 05:32:03;;;;;;;;;;;3.50;99.90;;;;;;5019424;28;19972;-76
2022/03/23 05:34:29;;;;;;;;;;;3.50;99.90;;;;;;5018291;28;19929;-76
2022/03/23 05:36:55;;;;;;;;;;;3.50;99.90;;;;;;5005610;28;20020;-76
2022/03/23 05:39:20;;;;;;;;;;;3.60;99.90;;;;;;5020323;28;19928;-76
2022/03/23 05:41:46;;;;;;;;;;;3.60;99.90;;;;;;5020748;28;19962;-77
2022/03/23 05:44:11;;;;;;;;;;;3.70;99.90;;;;;;5021513;28;20004;-76
2022/03/23 05:46:37;;;;;;;;;;;3.70;99.90;;;;;;5024282;28;20031;-77
2022/03/23 05:49:03;;;;;;;;;;;3.70;99.90;;;;;;5017881;28;20016;-76
2022/03/23 05:51:28;;;;;;;;;;;3.70;99.90;;;;;;5022522;28;19977;-76
2022/03/23 05:53:54;;;;;;;;;;;3.70;99.90;;;;;;5021184;28;19921;-76
2022/03/23 05:56:20;;;;;;;;;;;3.70;99.90;;;;;;5021208;28;20379;-76
2022/03/23 05:58:45;;;;;;;;;;;3.70;99.90;;;;;;5016609;28;19929;-78
2022/03/23 06:01:11;;;;;;;;;;;3.80;99.90;;;;;;5007987;28;19921;-77
2022/03/23 06:03:36;;;;;;;;;;;3.80;99.90;;;;;;5021846;28;19948;-77
2022/03/23 06:06:03;;;;;;;;;;;3.70;99.90;;;;;;5018469;28;19965;-77
2022/03/23 06:08:28;;;;;;;;;;;3.70;99.90;;;;;;5020174;28;20298;-77
2022/03/23 06:10:54;;;;;;;;;;;3.80;99.90;;;;;;5020053;28;19976;-77
2022/03/23 06:13:20;;;;;;;;;;;3.80;99.90;;;;;;5014874;28;20299;-77
2022/03/23 06:15:46;;;;;;;;;;;3.80;99.90;;;;;;5012615;28;20016;-77
2022/03/23 06:18:12;;;;;;;;;;;3.80;99.90;;;;;;5013004;28;19922;-77
2022/03/23 06:20:38;;;;;;;;;;;3.80;99.90;;;;;;5013045;28;19922;-77
2022/03/23 06:23:03;;;;;;;;;;;3.80;99.90;;;;;;5013086;28;19932;-77
2022/03/23 06:25:29;;;;;;;;;;;3.90;99.90;;;;;;5012552;28;19921;-77
2022/03/23 06:27:54;;;;;;;;;;;4.00;99.90;;;;;;5012381;28;19922;-77
2022/03/23 06:30:20;;;;;;;;;;;4.00;99.90;;;;;;5012615;28;19922;-77
2022/03/23 06:32:45;;;;;;;;;;;4.00;99.90;;;;;;5012667;28;19928;-78
2022/03/23 06:35:11;;;;;;;;;;;4.10;99.90;;;;;;5012535;28;19948;-77
2022/03/23 06:37:37;;;;;;;;;;;4.10;99.90;;;;;;5012862;28;19956;-78
2022/03/23 06:40:03;;;;;;;;;;;4.30;99.90;;;;;;5012313;28;20008;-78
2022/03/23 06:42:29;;;;;;;;;;;4.30;99.90;;;;;;5012338;28;19922;-78
2022/03/23 06:44:55;;;;;;;;;;;4.40;99.90;;;;;;5012423;28;20017;-77
2022/03/23 06:47:20;;;;;;;;;;;4.50;99.90;;;;;;5012254;28;20260;-77
2022/03/23 06:49:46;;;;;;;;;;;4.60;99.90;;;;;;5012597;28;19972;-78
2022/03/23 06:52:11;;;;;;;;;;;4.70;99.90;;;;;;5012381;28;20437;-77
2022/03/23 06:54:36;;;;;;;;;;;4.80;99.90;;;;;;5012122;28;19925;-77
2022/03/23 06:57:02;;;;;;;;;;;4.90;99.90;;;;;;4995334;28;19929;-77
2022/03/23 06:59:28;;;;;;;;;;;5.00;99.90;;;;;;5012294;28;20203;-78
2022/03/23 07:01:53;;;;;;;;;;;5.10;99.90;;;;;;5012152;28;19979;-78
2022/03/23 07:04:19;;;;;;;;;;;5.30;99.90;;;;;;5011963;28;20300;-78
2022/03/23 07:06:44;;;;;;;;;;;5.40;99.90;;;;;;5012094;28;20378;-77
2022/03/23 07:11:54;;;;;;;;;;;5.70;99.90;;;;;;5011750;28;20395;-78
2022/03/23 07:14:19;;;;;;;;;;;5.90;99.90;;;;;;5010986;28;19922;-79
2022/03/23 07:16:45;;;;;;;;;;;6.00;99.90;;;;;;5011806;28;19921;-79
2022/03/23 07:19:11;;;;;;;;;;;6.20;99.90;;;;;;5011820;28;19921;-79
2022/03/23 07:21:36;;;;;;;;;;;6.30;99.90;;;;;;5013038;28;19925;-79
2022/03/23 07:24:02;;;;;;;;;;;6.50;99.90;;;;;;5015781;28;19944;-81
2022/03/23 07:26:27;;;;;;;;;;;6.70;99.90;;;;;;5020235;28;19928;-81
2022/03/23 07:28:53;;;;;;;;;;;6.80;99.90;;;;;;5021420;28;19925;-81
2022/03/23 07:31:18;;;;;;;;;;;7.00;99.90;;;;;;5020479;28;19926;-80
2022/03/23 07:33:44;;;;;;;;;;;7.20;99.90;;;;;;5018076;28;19921;-80
2022/03/23 07:36:12;;;;;;;;;;;7.30;99.90;;;;;;5016680;28;19921;-79
2022/03/23 07:38:38;;;;;;;;;;;7.50;99.90;;;;;;5012970;28;20016;-79
2022/03/23 07:41:03;;;;;;;;;;;7.70;99.90;;;;;;4997919;28;19988;-79
2022/03/23 07:43:29;;;;;;;;;;;7.80;99.90;;;;;;5015277;28;19921;-80
2022/03/23 07:45:54;;;;;;;;;;;8.00;99.90;;;;;;5015790;28;19921;-80
2022/03/23 07:48:22;;;;;;;;;;;8.20;99.90;;;;;;5016770;28;19922;-80
2022/03/23 07:50:48;;;;;;;;;;;8.40;99.90;;;;;;5001097;28;19971;-80
2022/03/23 07:53:14;;;;;;;;;;;8.50;99.90;;;;;;5017574;28;19976;-80
2022/03/23 07:55:39;;;;;;;;;;;8.90;99.90;;;;;;5001455;28;19969;-81
2022/03/23 07:58:05;;;;;;;;;;;9.10;99.90;;;;;;5002387;28;19921;-80
2022/03/23 08:00:31;;;;;;;;;;;9.40;99.90;;;;;;5018325;28;19933;-80
2022/03/23 08:02:56;;;;;;;;;;;9.70;99.90;;;;;;5005483;28;20359;-79
2022/03/23 08:05:22;;;;;;;;;;;9.90;99.90;;;;;;4993231;28;20288;-79
2022/03/23 08:07:47;;;;;;;;;;;10.20;99.90;;;;;;4992359;28;19948;-79
2022/03/23 08:10:13;;;;;;;;;;;10.40;99.90;;;;;;4992714;28;20008;-79
2022/03/23 08:12:38;;;;;;;;;;;10.70;99.90;;;;;;4992193;28;19933;-78
2022/03/23 08:15:04;;;;;;;;;;;10.90;99.90;;;;;;4992200;28;19921;-79
2022/03/23 08:17:29;;;;;;;;;;;11.10;99.90;;;;;;4991826;28;19922;-78
2022/03/23 08:22:39;;;;;;;;;;;11.40;99.90;;;;;;5011037;28;19995;-78
2022/03/23 08:25:05;;;;;;;;;;;11.60;99.90;;;;;;5010991;28;19988;-77
2022/03/23 08:27:31;;;;;;;;;;;11.80;99.90;;;;;;5010574;28;19921;-78
2022/03/23 08:29:56;;;;;;;;;;;12.00;99.90;;;;;;5010777;28;19921;-78
2022/03/23 08:32:26;;;;;;;;;;;12.10;99.90;;;;;;5010692;28;19932;-78
2022/03/23 08:34:51;;;;;;;;;;;12.30;99.90;;;;;;5010275;28;19921;-77
2022/03/23 08:37:17;;;;;;;;;;;12.50;99.90;;;;;;4993345;28;19928;-77
2022/03/23 08:39:43;;;;;;;;;;;12.70;99.90;;;;;;4994223;28;19925;-78
2022/03/23 08:42:08;;;;;;;;;;;12.90;99.90;;;;;;5010831;28;20334;-77
2022/03/23 08:44:34;;;;;;;;;;;13.10;96.90;;;;;;5010443;28;19931;-77
2022/03/23 08:47:00;;;;;;;;;;;13.20;99.30;;;;;;5010643;28;19929;-77
2022/03/23 08:49:25;;;;;;;;;;;13.30;98.90;;;;;;5010491;28;19925;-78
2022/03/23 08:51:50;;;;;;;;;;;13.40;95.60;;;;;;5010670;28;19964;-77
2022/03/23 08:54:16;;;;;;;;;;;13.60;94.10;;;;;;5010024;28;19971;-77
2022/03/23 08:56:41;;;;;;;;;;;13.80;91.60;;;;;;5010479;28;19922;-77
2022/03/23 08:59:07;;;;;;;;;;;14.00;78.80;;;;;;5010501;28;19922;-77
2022/03/23 09:01:32;;;;;;;;;;;14.10;94.40;;;;;;5010834;28;20072;-77
2022/03/23 09:04:03;;;;;;;;;;;14.30;76.10;;;;;;5011666;28;19921;-77
2022/03/23 09:06:29;;;;;;;;;;;14.40;64.40;;;;;;5010467;28;19945;-77
2022/03/23 09:08:54;;;;;;;;;;;14.50;58.60;;;;;;5010368;28;19921;-77
2022/03/23 09:11:21;;;;;;;;;;;14.70;61.00;;;;;;5009830;28;19929;-77
2022/03/23 09:13:47;;;;;;;;;;;14.80;59.50;;;;;;5010412;28;19922;-77
2022/03/23 09:16:12;;;;;;;;;;;15.00;56.60;;;;;;5009875;28;19926;-77
2022/03/23 09:18:38;;;;;;;;;;;15.20;56.10;;;;;;5010476;28;19925;-77
2022/03/23 09:21:03;;;;;;;;;;;15.30;58.70;;;;;;5010253;28;19922;-77
2022/03/23 09:23:29;;;;;;;;;;;15.50;56.50;;;;;;5010165;28;19921;-77
2022/03/23 09:25:54;;;;;;;;;;;15.60;57.00;;;;;;5009707;28;19922;-77
2022/03/23 09:28:20;;;;;;;;;;;15.70;56.20;;;;;;5009400;28;19966;-77
2022/03/23 09:30:45;;;;;;;;;;;15.80;53.10;;;;;;5005235;28;19929;-77
2022/03/23 09:33:11;;;;;;;;;;;15.80;51.50;;;;;;4990537;28;19922;-77
2022/03/23 09:35:37;;;;;;;;;;;15.90;52.70;;;;;;4990354;28;19921;-77
2022/03/23 09:38:05;;;;;;;;;;;16.00;54.10;;;;;;4990676;28;19948;-77
2022/03/23 09:40:32;;;;;;;;;;;16.10;52.80;;;;;;4990465;28;19984;-77
2022/03/23 09:43:05;;;;;;;;;;;16.20;52.50;;;;;;4990780;28;20244;-77
2022/03/23 09:47:59;;;;;;;;;;;16.50;50.40;;;;;;5012971;28;19921;-77
2022/03/23 09:50:28;;;;;;;;;;;16.50;50.90;;;;;;4997224;28;19928;-78
2022/03/23 09:52:55;;;;;;;;;;;16.60;48.80;;;;;;5013428;28;20019;-77
2022/03/23 09:55:20;;;;;;;;;;;16.70;51.10;;;;;;5013371;28;19921;-76
2022/03/23 09:57:46;;;;;;;;;;;16.80;54.30;;;;;;5013123;28;19922;-77
2022/03/23 10:00:12;;;;;;;;;;;16.80;48.00;;;;;;5013278;28;19976;-76
2022/03/23 10:02:40;;;;;;;;;;;16.90;49.80;;;;;;5012850;28;19922;-76
2022/03/23 10:05:24;;;;;;;;;;;16.90;51.90;;;;;;5013041;28;19921;-77
2022/03/23 10:07:50;;;;;;;;;;;17.00;49.00;;;;;;5012997;28;19943;-76
2022/03/23 10:10:18;;;;;;;;;;;17.10;46.10;;;;;;5013146;28;20008;-76
2022/03/23 10:13:02;;;;;;;;;;;17.20;45.60;;;;;;5012870;28;19929;-76
2022/03/23 10:15:47;;;;;;;;;;;17.30;48.00;;;;;;5012883;28;19928;-77
2022/03/23 10:18:22;;;;;;;;;;;17.30;43.40;;;;;;5012965;28;20422;-77
2022/03/23 10:20:48;;;;;;;;;;;17.50;43.10;;;;;;5012964;28;19921;-76
2022/03/23 10:23:18;;;;;;;;;;;17.60;42.40;;;;;;5012849;28;19945;-77
2022/03/23 10:25:44;;;;;;;;;;;17.60;42.40;;;;;;5013194;28;19921;-77
2022/03/23 10:28:13;;;;;;;;;;;17.80;42.80;;;;;;5012820;28;20407;-77
2022/03/23 10:30:39;;;;;;;;;;;17.90;43.50;;;;;;5012704;28;20446;-77
2022/03/23 10:33:16;;;;;;;;;;;17.90;44.30;;;;;;5012713;28;19926;-77
2022/03/23 10:35:41;;;;;;;;;;;18.00;44.80;;;;;;5012413;28;19922;-77
2022/03/23 10:38:11;;;;;;;;;;;18.10;43.50;;;;;;5012285;28;20292;-77
2022/03/23 10:40:36;;;;;;;;;;;18.30;42.20;;;;;;5012398;28;19921;-77
2022/03/23 10:43:02;;;;;;;;;;;18.50;41.00;;;;;;5012810;28;19929;-77
2022/03/23 10:45:31;;;;;;;;;;;18.60;40.10;;;;;;5012387;28;19929;-77
2022/03/23 10:48:05;;;;;;;;;;;18.60;38.10;;;;;;5012203;28;19921;-77
2022/03/23 10:50:31;;;;;;;;;;;18.70;39.80;;;;;;5012829;28;19921;-77
2022/03/23 10:52:58;;;;;;;;;;;18.80;38.80;;;;;;5012279;28;19927;-77
2022/03/23 10:55:24;;;;;;;;;;;18.90;38.90;;;;;;5011751;28;19932;-78
2022/03/23 10:57:50;;;;;;;;;;;18.90;39.00;;;;;;5011604;28;20046;-78
2022/03/23 11:00:18;;;;;;;;;;;18.90;39.20;;;;;;4996219;28;19949;-78
2022/03/23 11:02:46;;;;;;;;;;;19.10;39.70;;;;;;5011871;28;19927;-78
2022/03/23 11:05:11;;;;;;;;;;;19.20;35.70;;;;;;5012408;28;19995;-78
2022/03/23 11:07:38;;;;;;;;;;;19.30;36.00;;;;;;4995681;28;20387;-77
2022/03/23 11:16:01;;;;;;;;;;;19.10;40.00;;;;;;4975023;28;20368;-78
2022/03/23 11:18:27;;;;;;;;;;;19.00;38.80;;;;;;4975105;28;19921;-78
2022/03/23 11:20:53;;;;;;;;;;;19.10;38.40;;;;;;5002286;28;20280;-79
2022/03/23 11:23:26;;;;;;;;;;;19.20;44.10;;;;;;5018123;28;20326;-79
2022/03/23 11:25:53;;;;;;;;;;;19.40;40.00;;;;;;5021624;28;19930;-78
2022/03/23 11:28:20;;;;;;;;;;;19.70;38.80;;;;;;5020231;28;20020;-78
2022/03/23 11:30:46;;;;;;;;;;;19.90;40.90;;;;;;5020985;28;20359;-78
2022/03/23 11:33:15;;;;;;;;;;;19.90;37.40;;;;;;5020289;28;20192;-78
2022/03/23 11:35:46;;;;;;;;;;;20.00;39.00;;;;;;5019167;28;19921;-79
2022/03/23 11:38:12;;;;;;;;;;;20.00;37.50;;;;;;5019583;28;19929;-79
2022/03/23 11:40:40;;;;;;;;;;;20.10;37.20;;;;;;5013220;28;19960;-77
2022/03/23 11:43:05;;;;;;;;;;;20.20;37.80;;;;;;5011411;28;19929;-77
2022/03/23 11:45:31;;;;;;;;;;;20.20;37.40;;;;;;5011236;28;19921;-77
2022/03/23 11:48:01;;;;;;;;;;;20.20;36.80;;;;;;5010402;28;20009;-77
2022/03/23 11:50:30;;;;;;;;;;;20.30;36.30;;;;;;5012604;28;20016;-77
2022/03/23 11:53:03;;;;;;;;;;;20.40;35.80;;;;;;5011330;28;19963;-77
2022/03/23 11:55:38;;;;;;;;;;;20.50;36.60;;;;;;5011233;28;19921;-77
2022/03/23 11:58:17;;;;;;;;;;;20.50;37.40;;;;;;5011214;28;19926;-77
2022/03/23 12:00:51;;;;;;;;;;;20.60;35.70;;;;;;5011289;28;19928;-77
2022/03/23 12:03:53;;;;;;;;;;;20.60;34.90;;;;;;5011180;28;19921;-77
2022/03/23 12:06:19;;;;;;;;;;;20.70;38.30;;;;;;4961818;28;19923;-79
2022/03/23 12:08:51;;;;;;;;;;;20.70;37.20;;;;;;4993009;28;19945;-79
2022/03/23 12:11:43;;;;;;;;;;;20.40;36.90;;;;;;5000471;28;19933;-79
2022/03/23 12:14:25;;;;;;;;;;;20.40;36.80;;;;;;5011832;28;19922;-79
2022/03/23 12:16:55;;;;;;;;;;;20.40;37.90;;;;;;5000339;28;19929;-79
2022/03/23 12:19:23;;;;;;;;;;;20.50;36.40;;;;;;4997921;28;20304;-79
2022/03/23 12:22:00;;;;;;;;;;;20.60;36.00;;;;;;5002107;28;19949;-80
2022/03/23 12:24:41;;;;;;;;;;;20.70;35.10;;;;;;5017184;28;19921;-80
2022/03/23 12:27:30;;;;;;;;;;;20.90;34.40;;;;;;5005263;28;19921;-79
2022/03/23 12:29:58;;;;;;;;;;;20.90;35.90;;;;;;5018969;28;19921;-79
2022/03/23 12:32:34;;;;;;;;;;;21.00;35.40;;;;;;5019375;28;20573;-79
2022/03/23 12:34:59;;;;;;;;;;;21.30;36.30;;;;;;5020512;28;19944;-79
2022/03/23 12:37:34;;;;;;;;;;;21.60;34.30;;;;;;5018505;28;19925;-80
2022/03/23 12:40:05;;;;;;;;;;;21.80;34.60;;;;;;5018339;28;19921;-80
2022/03/23 12:42:31;;;;;;;;;;;21.90;32.60;;;;;;5017432;28;20072;-80
2022/03/23 12:45:00;;;;;;;;;;;21.80;33.00;;;;;;5019676;28;19988;-80
2022/03/23 12:47:26;;;;;;;;;;;21.80;35.30;;;;;;5018717;28;19922;-81
2022/03/23 12:58:26;;;;;;;;;;;21.90;33.30;;;;;;5018407;28;19921;-80
2022/03/23 13:00:53;;;;;;;;;;;22.00;34.00;;;;;;5016820;28;20032;-80
2022/03/23 13:03:22;;;;;;;;;;;22.00;33.60;;;;;;5017690;28;19928;-80
2022/03/23 13:05:54;;;;;;;;;;;22.00;33.70;;;;;;5015414;28;20285;-80
2022/03/23 13:08:33;;;;;;;;;;;22.20;35.00;;;;;;5016069;28;20011;-80
2022/03/23 13:10:59;;;;;;;;;;;22.20;33.70;;;;;;5015282;28;19933;-80
2022/03/23 13:13:26;;;;;;;;;;;22.20;34.40;;;;;;5017110;28;19921;-80
2022/03/23 13:15:52;;;;;;;;;;;22.30;34.10;;;;;;5015490;28;19921;-80
2022/03/23 13:18:27;;;;;;;;;;;22.60;34.20;;;;;;5018369;28;20017;-80
2022/03/23 13:20:54;;;;;;;;;;;22.60;33.10;;;;;;5017194;28;19922;-80
2022/03/23 13:23:19;;;;;;;;;;;22.60;34.90;;;;;;5002016;28;19971;-79
2022/03/23 13:26:02;;;;;;;;;;;22.40;34.10;;;;;;4998911;28;19922;-80
2022/03/23 13:28:28;;;;;;;;;;;22.40;33.70;;;;;;4999262;28;19945;-80
2022/03/23 13:30:59;;;;;;;;;;;22.60;35.40;;;;;;5000157;28;20392;-80
2022/03/23 13:33:27;;;;;;;;;;;22.80;34.90;;;;;;4999329;28;19929;-79
2022/03/23 13:35:54;;;;;;;;;;;22.90;32.60;;;;;;5001778;28;19921;-80
2022/03/23 13:38:20;;;;;;;;;;;22.80;32.90;;;;;;5016988;28;19921;-80
2022/03/23 13:43:32;;;;;;;;;;;22.80;32.50;;;;;;5018844;28;19921;-80
2022/03/23 13:45:59;;;;;;;;;;;22.90;34.40;;;;;;5019589;28;19926;-80
2022/03/23 13:48:30;;;;;;;;;;;23.10;32.90;;;;;;5019954;28;19963;-80
2022/03/23 13:50:56;;;;;;;;;;;23.30;32.50;;;;;;5021067;28;19930;-80
2022/03/23 13:53:22;;;;;;;;;;;23.40;33.90;;;;;;5019239;28;19922;-80
2022/03/23 13:55:48;;;;;;;;;;;23.50;31.90;;;;;;5018183;28;20064;-80
2022/03/23 13:58:18;;;;;;;;;;;23.50;32.80;;;;;;5020080;28;19921;-80
2022/03/23 14:00:45;;;;;;;;;;;23.40;32.20;;;;;;5019369;28;19925;-80
2022/03/23 14:03:11;;;;;;;;;;;23.50;31.70;;;;;;5001920;28;19953;-80
2022/03/23 14:05:37;;;;;;;;;;;23.50;33.00;;;;;;5017509;28;19987;-80
2022/03/23 14:08:02;;;;;;;;;;;23.50;32.30;;;;;;5021552;28;20012;-80
2022/03/23 14:10:38;;;;;;;;;;;23.30;31.20;;;;;;5025560;28;19921;-80
2022/03/23 14:13:07;;;;;;;;;;;23.30;32.70;;;;;;5017857;28;19929;-80
2022/03/23 14:15:47;;;;;;;;;;;23.40;32.00;;;;;;5019230;28;19931;-80
2022/03/23 14:18:12;;;;;;;;;;;23.30;31.80;;;;;;5019243;28;19972;-80
2022/03/23 14:20:49;;;;;;;;;;;23.40;33.00;;;;;;5017877;28;19921;-80
2022/03/23 14:23:16;;;;;;;;;;;23.50;33.30;;;;;;5016991;28;20392;-80
2022/03/23 14:25:41;;;;;;;;;;;23.60;31.20;;;;;;5016275;28;19948;-80
2022/03/23 14:28:14;;;;;;;;;;;23.70;31.00;;;;;;5018711;28;19922;-80
2022/03/23 14:30:44;;;;;;;;;;;23.80;31.80;;;;;;5017942;28;19921;-80
2022/03/23 14:33:10;;;;;;;;;;;24.10;31.90;;;;;;5016513;28;20341;-80
2022/03/23 14:35:40;;;;;;;;;;;24.10;33.20;;;;;;5018688;28;20115;-80
2022/03/23 14:38:13;;;;;;;;;;;23.90;32.50;;;;;;5015452;28;19928;-79
2022/03/23 14:40:46;;;;;;;;;;;23.90;32.40;;;;;;5017685;28;19970;-80
2022/03/23 14:43:25;;;;;;;;;;;24.00;32.50;;;;;;5017247;28;19922;-80
2022/03/23 14:45:51;;;;;;;;;;;24.10;32.40;;;;;;5018500;28;19922;-80
2022/03/23 14:48:18;;;;;;;;;;;24.10;30.60;;;;;;5015149;28;19964;-80
2022/03/23 14:50:46;;;;;;;;;;;24.00;32.40;;;;;;5002582;28;19932;-80
2022/03/23 14:53:11;;;;;;;;;;;23.80;32.70;;;;;;5018726;28;19925;-80
2022/03/23 14:55:38;;;;;;;;;;;23.60;31.80;;;;;;5017188;28;19946;-80
2022/03/23 14:58:04;;;;;;;;;;;23.40;32.30;;;;;;5018205;28;19936;-80